sensor_id;sensor_type;location;lat;lon;timestamp;pressure;altitude;pressure_sealevel;temperature;humidity
6196;BME280;3131;42.630;23.382;2022-08-19T00:01:37;94200.90;;;21.67;100.00
6196;BME280;3131;42.630;23.382;2022-08-19T00:04:08;94198.14;;;21.68;100.00
6196;BME280;3131;42.630;23.382;2022-08-19T00:06:40;94206.98;;;21.66;100.00
6196;BME280;3131;42.630;23.382;2022-08-19T00:09:14;94197.21;;;21.65;100.00
6196;BME280;3131;42.630;23.382;2022-08-19T00:11:42;94197.89;;;21.63;100.00
6196;BME280;3131;42.630;23.382;2022-08-19T00:14:14;94203.27;;;21.53;100.00
6196;BME280;3131;42.630;23.382;2022-08-19T00:16:45;94196.09;;;21.49;100.00
6196;BME280;3131;42.630;23.382;2022-08-19T00:19:17;94196.62;;;21.44;100.00
6196;BME280;3131;42.630;23.382;2022-08-19T00:21:46;94203.73;;;21.38;100.00
6196;BME280;3131;42.630;23.382;2022-08-19T00:24:15;94212.23;;;21.30;100.00
6196;BME280;3131;42.630;23.382;2022-08-19T00:26:45;94213.27;;;21.21;100.00
6196;BME280;3131;42.630;23.382;2022-08-19T00:29:17;94212.66;;;21.19;100.00
6196;BME280;3131;42.630;23.382;2022-08-19T00:31:47;94214.63;;;21.13;100.00
6196;BME280;3131;42.630;23.382;2022-08-19T00:34:18;94218.67;;;21.07;100.00
6196;BME280;3131;42.630;23.382;2022-08-19T00:36:47;94214.68;;;21.05;100.00
6196;BME280;3131;42.630;23.382;2022-08-19T00:39:17;94222.33;;;21.09;100.00
6196;BME280;3131;42.630;23.382;2022-08-19T00:41:47;94219.77;;;21.13;100.00
6196;BME280;3131;42.630;23.382;2022-08-19T00:44:19;94212.67;;;21.15;100.00
6196;BME280;3131;42.630;23.382;2022-08-19T00:46:50;94213.95;;;21.15;100.00
6196;BME280;3131;42.630;23.382;2022-08-19T00:49:22;94218.97;;;21.08;100.00
6196;BME280;3131;42.630;23.382;2022-08-19T00:51:57;94208.23;;;21.09;100.00
6196;BME280;3131;42.630;23.382;2022-08-19T00:54:27;94210.34;;;21.09;100.00
6196;BME280;3131;42.630;23.382;2022-08-19T00:56:59;94208.08;;;21.10;100.00
6196;BME280;3131;42.630;23.382;2022-08-19T00:59:30;94209.89;;;21.06;100.00
6196;BME280;3131;42.630;23.382;2022-08-19T01:01:59;94213.09;;;21.04;100.00
6196;BME280;3131;42.630;23.382;2022-08-19T01:04:29;94208.47;;;20.99;100.00
6196;BME280;3131;42.630;23.382;2022-08-19T01:06:58;94210.58;;;20.96;100.00
6196;BME280;3131;42.630;23.382;2022-08-19T01:09:28;94208.05;;;20.92;100.00
6196;BME280;3131;42.630;23.382;2022-08-19T01:11:58;94218.34;;;20.88;100.00
6196;BME280;3131;42.630;23.382;2022-08-19T01:14:27;94209.52;;;20.86;100.00
6196;BME280;3131;42.630;23.382;2022-08-19T01:16:57;94204.28;;;20.79;100.00
6196;BME280;3131;42.630;23.382;2022-08-19T01:19:30;94205.30;;;20.70;100.00
6196;BME280;3131;42.630;23.382;2022-08-19T01:22:03;94204.50;;;20.70;100.00
6196;BME280;3131;42.630;23.382;2022-08-19T01:24:32;94202.92;;;20.64;100.00
6196;BME280;3131;42.630;23.382;2022-08-19T01:27:04;94200.39;;;20.60;100.00
6196;BME280;3131;42.630;23.382;2022-08-19T01:29:33;94197.70;;;20.50;100.00
6196;BME280;3131;42.630;23.382;2022-08-19T01:32:03;94190.05;;;20.41;100.00
6196;BME280;3131;42.630;23.382;2022-08-19T01:34:33;94201.02;;;20.27;100.00
6196;BME280;3131;42.630;23.382;2022-08-19T01:37:06;94199.43;;;20.22;100.00
6196;BME280;3131;42.630;23.382;2022-08-19T01:39:39;94201.34;;;20.20;100.00
6196;BME280;3131;42.630;23.382;2022-08-19T01:42:10;94207.80;;;20.12;100.00
6196;BME280;3131;42.630;23.382;2022-08-19T01:44:40;94214.41;;;19.98;100.00
6196;BME280;3131;42.630;23.382;2022-08-19T01:47:09;94204.98;;;19.90;100.00
6196;BME280;3131;42.630;23.382;2022-08-19T01:49:39;94202.77;;;19.83;100.00
6196;BME280;3131;42.630;23.382;2022-08-19T01:52:08;94199.08;;;19.82;100.00
6196;BME280;3131;42.630;23.382;2022-08-19T01:54:37;94197.51;;;19.77;100.00
6196;BME280;3131;42.630;23.382;2022-08-19T01:57:08;94200.54;;;19.72;100.00
6196;BME280;3131;42.630;23.382;2022-08-19T01:59:40;94201.84;;;19.68;100.00
6196;BME280;3131;42.630;23.382;2022-08-19T02:02:10;94201.50;;;19.59;100.00
6196;BME280;3131;42.630;23.382;2022-08-19T02:04:39;94202.63;;;19.52;100.00
6196;BME280;3131;42.630;23.382;2022-08-19T02:07:09;94201.66;;;19.53;100.00
6196;BME280;3131;42.630;23.382;2022-08-19T02:09:38;94202.47;;;19.58;100.00
6196;BME280;3131;42.630;23.382;2022-08-19T02:12:08;94196.56;;;19.65;100.00
6196;BME280;3131;42.630;23.382;2022-08-19T02:14:37;94204.41;;;19.64;100.00
6196;BME280;3131;42.630;23.382;2022-08-19T02:17:07;94202.95;;;19.57;100.00
6196;BME280;3131;42.630;23.382;2022-08-19T02:19:37;94203.60;;;19.51;100.00
6196;BME280;3131;42.630;23.382;2022-08-19T02:22:06;94200.23;;;19.55;100.00
6196;BME280;3131;42.630;23.382;2022-08-19T02:24:35;94206.48;;;19.64;100.00
6196;BME280;3131;42.630;23.382;2022-08-19T02:27:06;94198.94;;;19.59;100.00
6196;BME280;3131;42.630;23.382;2022-08-19T02:29:35;94205.35;;;19.55;100.00
6196;BME280;3131;42.630;23.382;2022-08-19T02:32:05;94210.47;;;19.46;100.00
6196;BME280;3131;42.630;23.382;2022-08-19T02:34:34;94206.95;;;19.43;100.00
6196;BME280;3131;42.630;23.382;2022-08-19T02:37:04;94213.49;;;19.50;100.00
6196;BME280;3131;42.630;23.382;2022-08-19T02:39:33;94208.54;;;19.53;100.00
6196;BME280;3131;42.630;23.382;2022-08-19T02:42:03;94208.05;;;19.53;100.00
6196;BME280;3131;42.630;23.382;2022-08-19T02:44:32;94210.79;;;19.52;100.00
6196;BME280;3131;42.630;23.382;2022-08-19T02:47:01;94223.91;;;19.44;100.00
6196;BME280;3131;42.630;23.382;2022-08-19T02:49:32;94215.91;;;19.39;100.00
6196;BME280;3131;42.630;23.382;2022-08-19T02:52:02;94215.42;;;19.40;100.00
6196;BME280;3131;42.630;23.382;2022-08-19T02:54:31;94216.23;;;19.36;100.00
6196;BME280;3131;42.630;23.382;2022-08-19T02:57:00;94214.63;;;19.39;100.00
6196;BME280;3131;42.630;23.382;2022-08-19T02:59:31;94220.85;;;19.49;100.00
6196;BME280;3131;42.630;23.382;2022-08-19T03:02:01;94217.84;;;19.41;100.00
6196;BME280;3131;42.630;23.382;2022-08-19T03:04:30;94226.77;;;19.37;100.00
6196;BME280;3131;42.630;23.382;2022-08-19T03:07:00;94216.24;;;19.32;100.00
6196;BME280;3131;42.630;23.382;2022-08-19T03:09:29;94219.76;;;19.23;100.00
6196;BME280;3131;42.630;23.382;2022-08-19T03:11:58;94226.92;;;19.15;100.00
6196;BME280;3131;42.630;23.382;2022-08-19T03:14:29;94220.69;;;19.06;100.00
6196;BME280;3131;42.630;23.382;2022-08-19T03:16:58;94210.63;;;18.92;100.00
6196;BME280;3131;42.630;23.382;2022-08-19T03:19:28;94217.50;;;18.91;100.00
6196;BME280;3131;42.630;23.382;2022-08-19T03:21:57;94212.38;;;18.99;100.00
6196;BME280;3131;42.630;23.382;2022-08-19T03:24:26;94207.91;;;18.93;100.00
6196;BME280;3131;42.630;23.382;2022-08-19T03:26:56;94206.14;;;18.90;100.00
6196;BME280;3131;42.630;23.382;2022-08-19T03:29:27;94203.59;;;18.86;100.00
6196;BME280;3131;42.630;23.382;2022-08-19T03:31:59;94204.88;;;18.82;100.00
6196;BME280;3131;42.630;23.382;2022-08-19T03:34:31;94206.95;;;18.78;100.00
6196;BME280;3131;42.630;23.382;2022-08-19T03:37:05;94209.16;;;18.77;100.00
6196;BME280;3131;42.630;23.382;2022-08-19T03:39:36;94214.75;;;18.81;100.00
6196;BME280;3131;42.630;23.382;2022-08-19T03:42:05;94209.98;;;18.90;100.00
6196;BME280;3131;42.630;23.382;2022-08-19T03:44:35;94213.67;;;18.91;100.00
6196;BME280;3131;42.630;23.382;2022-08-19T03:47:06;94214.63;;;18.94;100.00
6196;BME280;3131;42.630;23.382;2022-08-19T03:49:35;94219.09;;;18.92;100.00
6196;BME280;3131;42.630;23.382;2022-08-19T03:52:05;94228.20;;;18.95;100.00
6196;BME280;3131;42.630;23.382;2022-08-19T03:54:35;94229.16;;;19.02;100.00
6196;BME280;3131;42.630;23.382;2022-08-19T03:57:06;94228.36;;;19.01;100.00
6196;BME280;3131;42.630;23.382;2022-08-19T03:59:37;94233.81;;;19.07;100.00
6196;BME280;3131;42.630;23.382;2022-08-19T04:02:09;94236.36;;;19.11;100.00
6196;BME280;3131;42.630;23.382;2022-08-19T04:04:40;94234.77;;;19.10;100.00
6196;BME280;3131;42.630;23.382;2022-08-19T04:07:12;94236.05;;;19.14;100.00
6196;BME280;3131;42.630;23.382;2022-08-19T04:09:43;94247.86;;;19.15;100.00
6196;BME280;3131;42.630;23.382;2022-08-19T04:12:12;94249.95;;;19.19;100.00
6196;BME280;3131;42.630;23.382;2022-08-19T04:14:42;94256.83;;;19.19;100.00
6196;BME280;3131;42.630;23.382;2022-08-19T04:17:12;94254.25;;;19.27;100.00
6196;BME280;3131;42.630;23.382;2022-08-19T04:19:41;94258.25;;;19.34;100.00
6196;BME280;3131;42.630;23.382;2022-08-19T04:22:11;94246.09;;;19.56;100.00
6196;BME280;3131;42.630;23.382;2022-08-19T04:24:40;94257.97;;;19.69;100.00
6196;BME280;3131;42.630;23.382;2022-08-19T04:27:09;94256.52;;;19.67;100.00
6196;BME280;3131;42.630;23.382;2022-08-19T04:29:38;94263.37;;;19.58;100.00
6196;BME280;3131;42.630;23.382;2022-08-19T04:32:08;94264.80;;;19.53;100.00
6196;BME280;3131;42.630;23.382;2022-08-19T04:34:38;94265.14;;;19.54;100.00
6196;BME280;3131;42.630;23.382;2022-08-19T04:37:08;94260.66;;;19.52;100.00
6196;BME280;3131;42.630;23.382;2022-08-19T04:39:39;94264.16;;;19.59;100.00
6196;BME280;3131;42.630;23.382;2022-08-19T04:42:27;94260.02;;;19.66;100.00
6196;BME280;3131;42.630;23.382;2022-08-19T04:45:10;94256.82;;;19.72;100.00
6196;BME280;3131;42.630;23.382;2022-08-19T04:47:42;94260.67;;;19.76;100.00
6196;BME280;3131;42.630;23.382;2022-08-19T04:50:12;94253.94;;;19.83;100.00
6196;BME280;3131;42.630;23.382;2022-08-19T04:52:41;94254.56;;;19.89;100.00
6196;BME280;3131;42.630;23.382;2022-08-19T04:55:11;94253.25;;;19.98;100.00
6196;BME280;3131;42.630;23.382;2022-08-19T04:57:41;94253.55;;;20.07;100.00
6196;BME280;3131;42.630;23.382;2022-08-19T05:00:12;94255.44;;;20.17;100.00
6196;BME280;3131;42.630;23.382;2022-08-19T05:02:42;94253.34;;;20.25;100.00
6196;BME280;3131;42.630;23.382;2022-08-19T05:05:11;94263.22;;;20.36;100.00
6196;BME280;3131;42.630;23.382;2022-08-19T05:07:40;94265.12;;;20.46;100.00
6196;BME280;3131;42.630;23.382;2022-08-19T05:10:10;94267.81;;;20.57;100.00
6196;BME280;3131;42.630;23.382;2022-08-19T05:12:40;94265.02;;;20.71;100.00
6196;BME280;3131;42.630;23.382;2022-08-19T05:15:10;94270.72;;;20.85;100.00
6196;BME280;3131;42.630;23.382;2022-08-19T05:17:40;94264.44;;;20.92;100.00
6196;BME280;3131;42.630;23.382;2022-08-19T05:20:12;94269.77;;;21.09;100.00
6196;BME280;3131;42.630;23.382;2022-08-19T05:22:58;94267.12;;;21.21;100.00
6196;BME280;3131;42.630;23.382;2022-08-19T05:25:29;94265.62;;;21.35;100.00
6196;BME280;3131;42.630;23.382;2022-08-19T05:27:58;94268.56;;;21.47;100.00
6196;BME280;3131;42.630;23.382;2022-08-19T05:30:27;94266.39;;;21.59;100.00
6196;BME280;3131;42.630;23.382;2022-08-19T05:32:56;94265.84;;;21.67;100.00
6196;BME280;3131;42.630;23.382;2022-08-19T05:35:25;94259.13;;;21.81;100.00
6196;BME280;3131;42.630;23.382;2022-08-19T05:37:55;94269.87;;;21.99;100.00
6196;BME280;3131;42.630;23.382;2022-08-19T05:40:25;94268.77;;;22.13;100.00
6196;BME280;3131;42.630;23.382;2022-08-19T05:42:54;94266.94;;;22.21;100.00
6196;BME280;3131;42.630;23.382;2022-08-19T05:45:23;94268.23;;;22.36;100.00
6196;BME280;3131;42.630;23.382;2022-08-19T05:47:52;94270.85;;;22.58;100.00
6196;BME280;3131;42.630;23.382;2022-08-19T05:50:22;94271.70;;;22.80;100.00
6196;BME280;3131;42.630;23.382;2022-08-19T05:52:52;94275.63;;;23.01;100.00
6196;BME280;3131;42.630;23.382;2022-08-19T05:55:21;94278.09;;;23.09;100.00
6196;BME280;3131;42.630;23.382;2022-08-19T06:00:19;94279.14;;;23.26;100.00
6196;BME280;3131;42.630;23.382;2022-08-19T06:02:48;94274.55;;;23.32;100.00
6196;BME280;3131;42.630;23.382;2022-08-19T06:05:18;94277.11;;;23.43;100.00
6196;BME280;3131;42.630;23.382;2022-08-19T06:07:48;94278.41;;;23.53;100.00
6196;BME280;3131;42.630;23.382;2022-08-19T06:10:17;94283.23;;;23.52;100.00
6196;BME280;3131;42.630;23.382;2022-08-19T06:12:46;94276.88;;;23.70;100.00
6196;BME280;3131;42.630;23.382;2022-08-19T06:15:16;94282.20;;;23.79;100.00
6196;BME280;3131;42.630;23.382;2022-08-19T06:17:45;94287.20;;;23.98;100.00
6196;BME280;3131;42.630;23.382;2022-08-19T06:20:15;94282.42;;;24.12;100.00
6196;BME280;3131;42.630;23.382;2022-08-19T06:22:47;94288.34;;;24.23;100.00
6196;BME280;3131;42.630;23.382;2022-08-19T06:25:19;94293.86;;;24.38;100.00
6196;BME280;3131;42.630;23.382;2022-08-19T06:27:48;94288.68;;;24.48;100.00
6196;BME280;3131;42.630;23.382;2022-08-19T06:30:18;94291.26;;;24.48;100.00
6196;BME280;3131;42.630;23.382;2022-08-19T06:32:47;94282.67;;;24.52;100.00
6196;BME280;3131;42.630;23.382;2022-08-19T06:35:17;94283.41;;;24.63;100.00
6196;BME280;3131;42.630;23.382;2022-08-19T06:37:46;94279.27;;;24.69;100.00
6196;BME280;3131;42.630;23.382;2022-08-19T06:40:16;94288.56;;;24.87;100.00
6196;BME280;3131;42.630;23.382;2022-08-19T06:45:25;94278.84;;;25.13;100.00
6196;BME280;3131;42.630;23.382;2022-08-19T06:47:55;94281.78;;;25.10;100.00
6196;BME280;3131;42.630;23.382;2022-08-19T06:50:25;94283.32;;;25.15;100.00
6196;BME280;3131;42.630;23.382;2022-08-19T06:52:54;94283.02;;;25.21;100.00
6196;BME280;3131;42.630;23.382;2022-08-19T06:55:23;94280.66;;;25.33;100.00
6196;BME280;3131;42.630;23.382;2022-08-19T06:57:52;94286.16;;;25.54;100.00
6196;BME280;3131;42.630;23.382;2022-08-19T07:00:22;94285.36;;;25.73;100.00
6196;BME280;3131;42.630;23.382;2022-08-19T07:02:51;94288.97;;;25.92;99.24
6196;BME280;3131;42.630;23.382;2022-08-19T07:08:00;94290.16;;;26.38;96.61
6196;BME280;3131;42.630;23.382;2022-08-19T07:10:30;94288.66;;;26.47;94.14
6196;BME280;3131;42.630;23.382;2022-08-19T07:13:00;94299.53;;;26.75;92.18
6196;BME280;3131;42.630;23.382;2022-08-19T07:15:29;94296.89;;;26.89;91.06
6196;BME280;3131;42.630;23.382;2022-08-19T07:17:59;94304.15;;;26.89;90.86
6196;BME280;3131;42.630;23.382;2022-08-19T07:20:28;94300.55;;;26.97;89.56
6196;BME280;3131;42.630;23.382;2022-08-19T07:22:57;94305.19;;;27.26;86.93
6196;BME280;3131;42.630;23.382;2022-08-19T07:25:26;94307.09;;;27.44;85.96
6196;BME280;3131;42.630;23.382;2022-08-19T07:27:56;94298.61;;;27.71;85.23
6196;BME280;3131;42.630;23.382;2022-08-19T07:30:25;94299.63;;;27.70;82.94
6196;BME280;3131;42.630;23.382;2022-08-19T07:32:54;94298.11;;;27.79;80.79
6196;BME280;3131;42.630;23.382;2022-08-19T07:35:24;94299.49;;;27.90;78.84
6196;BME280;3131;42.630;23.382;2022-08-19T07:37:53;94299.52;;;27.99;77.52
6196;BME280;3131;42.630;23.382;2022-08-19T07:40:23;94299.93;;;28.31;75.34
6196;BME280;3131;42.630;23.382;2022-08-19T07:42:52;94297.52;;;28.54;73.58
6196;BME280;3131;42.630;23.382;2022-08-19T07:45:22;94298.45;;;28.60;71.48
6196;BME280;3131;42.630;23.382;2022-08-19T07:47:52;94295.50;;;28.65;69.79
6196;BME280;3131;42.630;23.382;2022-08-19T07:50:21;94292.84;;;28.63;69.55
6196;BME280;3131;42.630;23.382;2022-08-19T07:52:51;94294.19;;;28.93;68.93
6196;BME280;3131;42.630;23.382;2022-08-19T07:55:23;94284.61;;;29.24;68.10
6196;BME280;3131;42.630;23.382;2022-08-19T07:57:52;94293.81;;;29.38;65.99
6196;BME280;3131;42.630;23.382;2022-08-19T08:00:22;94296.35;;;29.56;65.54
6196;BME280;3131;42.630;23.382;2022-08-19T08:02:51;94301.54;;;29.77;64.47
6196;BME280;3131;42.630;23.382;2022-08-19T08:05:21;94299.68;;;29.87;58.95
6196;BME280;3131;42.630;23.382;2022-08-19T08:08:08;94299.68;;;29.87;58.95
6196;BME280;3131;42.630;23.382;2022-08-19T08:11:08;94297.79;;;29.94;59.13
6196;BME280;3131;42.630;23.382;2022-08-19T08:13:38;94292.83;;;30.16;56.97
6196;BME280;3131;42.630;23.382;2022-08-19T08:16:08;69740.34;;;30.22;55.38
6196;BME280;3131;42.630;23.382;2022-08-19T08:18:38;94289.00;;;30.57;54.20
6196;BME280;3131;42.630;23.382;2022-08-19T08:21:09;94289.00;;;30.57;54.20
6196;BME280;3131;42.630;23.382;2022-08-19T08:23:38;94281.58;;;30.63;52.79
6196;BME280;3131;42.630;23.382;2022-08-19T08:26:07;94282.42;;;30.78;52.87
6196;BME280;3131;42.630;23.382;2022-08-19T08:28:37;94280.98;;;30.98;53.04
6196;BME280;3131;42.630;23.382;2022-08-19T08:31:06;94280.02;;;31.31;52.33
6196;BME280;3131;42.630;23.382;2022-08-19T08:33:37;94285.05;;;31.66;51.60
6196;BME280;3131;42.630;23.382;2022-08-19T08:36:07;94287.97;;;31.86;49.28
6196;BME280;3131;42.630;23.382;2022-08-19T08:38:38;94288.04;;;31.89;47.69
6196;BME280;3131;42.630;23.382;2022-08-19T08:41:11;94285.73;;;31.76;45.46
6196;BME280;3131;42.630;23.382;2022-08-19T08:43:44;94277.02;;;32.01;43.81
6196;BME280;3131;42.630;23.382;2022-08-19T08:46:16;94280.84;;;32.13;44.65
6196;BME280;3131;42.630;23.382;2022-08-19T08:51:32;94274.75;;;32.66;40.83
6196;BME280;3131;42.630;23.382;2022-08-19T08:54:04;94275.33;;;32.95;41.37
6196;BME280;3131;42.630;23.382;2022-08-19T08:56:34;94274.80;;;32.95;41.02
6196;BME280;3131;42.630;23.382;2022-08-19T08:59:06;94268.19;;;33.34;41.40
6196;BME280;3131;42.630;23.382;2022-08-19T09:01:37;94266.21;;;34.63;36.82
6196;BME280;3131;42.630;23.382;2022-08-19T09:04:08;94273.42;;;36.65;33.19
6196;BME280;3131;42.630;23.382;2022-08-19T09:06:40;94265.72;;;38.04;30.99
6196;BME280;3131;42.630;23.382;2022-08-19T09:09:15;94269.30;;;39.29;29.46
6196;BME280;3131;42.630;23.382;2022-08-19T09:11:54;94268.00;;;39.80;27.66
6196;BME280;3131;42.630;23.382;2022-08-19T09:14:37;94269.39;;;40.66;25.72
6196;BME280;3131;42.630;23.382;2022-08-19T09:17:09;94265.64;;;41.78;24.76
6196;BME280;3131;42.630;23.382;2022-08-19T09:19:47;94265.77;;;41.50;24.86
6196;BME280;3131;42.630;23.382;2022-08-19T09:22:17;94266.23;;;42.49;24.19
6196;BME280;3131;42.630;23.382;2022-08-19T09:24:49;94263.13;;;42.55;23.76
6196;BME280;3131;42.630;23.382;2022-08-19T09:27:20;94258.94;;;42.83;23.55
6196;BME280;3131;42.630;23.382;2022-08-19T09:29:51;94258.45;;;42.81;23.75
6196;BME280;3131;42.630;23.382;2022-08-19T09:32:21;94257.75;;;43.24;22.66
6196;BME280;3131;42.630;23.382;2022-08-19T09:34:51;94260.27;;;43.00;21.98
6196;BME280;3131;42.630;23.382;2022-08-19T09:37:22;94253.15;;;43.62;20.86
6196;BME280;3131;42.630;23.382;2022-08-19T09:39:52;94250.92;;;44.13;20.85
6196;BME280;3131;42.630;23.382;2022-08-19T09:42:21;94254.80;;;45.55;19.06
6196;BME280;3131;42.630;23.382;2022-08-19T09:44:50;94248.27;;;45.44;18.77
6196;BME280;3131;42.630;23.382;2022-08-19T09:47:19;94246.34;;;45.53;20.23
6196;BME280;3131;42.630;23.382;2022-08-19T09:49:48;94251.00;;;45.90;18.92
6196;BME280;3131;42.630;23.382;2022-08-19T09:52:18;94245.72;;;46.20;18.42
6196;BME280;3131;42.630;23.382;2022-08-19T09:54:47;94246.02;;;44.09;20.26
6196;BME280;3131;42.630;23.382;2022-08-19T09:57:18;94248.02;;;44.65;19.75
6196;BME280;3131;42.630;23.382;2022-08-19T09:59:48;94241.94;;;44.35;20.14
6196;BME280;3131;42.630;23.382;2022-08-19T10:02:18;94233.56;;;44.16;22.30
6196;BME280;3131;42.630;23.382;2022-08-19T10:04:48;94235.61;;;44.48;21.02
6196;BME280;3131;42.630;23.382;2022-08-19T10:07:37;94229.84;;;43.67;22.29
6196;BME280;3131;42.630;23.382;2022-08-19T10:10:08;94234.31;;;43.61;20.81
6196;BME280;3131;42.630;23.382;2022-08-19T10:12:38;94224.66;;;43.97;21.34
6196;BME280;3131;42.630;23.382;2022-08-19T10:15:09;94217.69;;;43.49;20.70
6196;BME280;3131;42.630;23.382;2022-08-19T10:17:39;94221.07;;;43.84;20.10
6196;BME280;3131;42.630;23.382;2022-08-19T10:20:10;94209.41;;;44.00;20.05
6196;BME280;3131;42.630;23.382;2022-08-19T10:22:39;94218.13;;;44.98;19.69
6196;BME280;3131;42.630;23.382;2022-08-19T10:25:10;94215.13;;;44.64;19.85
6196;BME280;3131;42.630;23.382;2022-08-19T10:27:41;94211.22;;;45.45;18.97
6196;BME280;3131;42.630;23.382;2022-08-19T10:30:13;94216.45;;;45.75;18.63
6196;BME280;3131;42.630;23.382;2022-08-19T10:32:42;94214.17;;;45.52;18.68
6196;BME280;3131;42.630;23.382;2022-08-19T10:35:13;94213.31;;;45.67;18.84
6196;BME280;3131;42.630;23.382;2022-08-19T10:37:43;94204.91;;;45.16;19.35
6196;BME280;3131;42.630;23.382;2022-08-19T10:40:13;94206.83;;;44.80;19.24
6196;BME280;3131;42.630;23.382;2022-08-19T10:42:42;94207.43;;;44.71;19.05
6196;BME280;3131;42.630;23.382;2022-08-19T10:45:12;94211.16;;;45.21;18.62
6196;BME280;3131;42.630;23.382;2022-08-19T10:47:41;94209.95;;;45.57;18.32
6196;BME280;3131;42.630;23.382;2022-08-19T10:50:10;94197.61;;;46.78;19.24
6196;BME280;3131;42.630;23.382;2022-08-19T10:52:57;94202.33;;;46.32;18.52
6196;BME280;3131;42.630;23.382;2022-08-19T10:55:26;94195.55;;;47.62;17.83
6196;BME280;3131;42.630;23.382;2022-08-19T10:58:15;94197.17;;;48.62;16.97
6196;BME280;3131;42.630;23.382;2022-08-19T11:00:51;94198.31;;;47.65;17.33
6196;BME280;3131;42.630;23.382;2022-08-19T11:03:21;94192.95;;;45.95;17.82
6196;BME280;3131;42.630;23.382;2022-08-19T11:05:59;94195.03;;;45.44;18.28
6196;BME280;3131;42.630;23.382;2022-08-19T11:08:29;94189.64;;;46.04;17.81
6196;BME280;3131;42.630;23.382;2022-08-19T11:11:00;94197.42;;;46.16;18.60
6196;BME280;3131;42.630;23.382;2022-08-19T11:13:32;94189.82;;;45.81;18.13
6196;BME280;3131;42.630;23.382;2022-08-19T11:16:06;94191.88;;;46.02;18.24
6196;BME280;3131;42.630;23.382;2022-08-19T11:18:38;94194.33;;;45.35;18.57
6196;BME280;3131;42.630;23.382;2022-08-19T11:21:10;94192.10;;;44.83;18.74
6196;BME280;3131;42.630;23.382;2022-08-19T11:23:40;94194.13;;;45.73;18.45
6196;BME280;3131;42.630;23.382;2022-08-19T11:26:10;94193.09;;;45.53;18.55
6196;BME280;3131;42.630;23.382;2022-08-19T11:28:40;94185.98;;;46.03;18.58
6196;BME280;3131;42.630;23.382;2022-08-19T11:31:11;94185.29;;;46.61;17.76
6196;BME280;3131;42.630;23.382;2022-08-19T11:33:41;94182.72;;;45.85;18.02
6196;BME280;3131;42.630;23.382;2022-08-19T11:36:11;94180.01;;;45.06;18.75
6196;BME280;3131;42.630;23.382;2022-08-19T11:38:41;94172.28;;;46.72;18.25
6196;BME280;3131;42.630;23.382;2022-08-19T11:41:10;94166.34;;;46.26;18.27
6196;BME280;3131;42.630;23.382;2022-08-19T11:43:39;94162.32;;;46.50;17.77
6196;BME280;3131;42.630;23.382;2022-08-19T11:46:10;94156.73;;;47.36;16.97
6196;BME280;3131;42.630;23.382;2022-08-19T11:48:41;94166.88;;;46.96;17.28
6196;BME280;3131;42.630;23.382;2022-08-19T11:51:12;94162.34;;;46.26;17.71
6196;BME280;3131;42.630;23.382;2022-08-19T11:53:42;94158.98;;;46.53;17.80
6196;BME280;3131;42.630;23.382;2022-08-19T11:56:12;94155.23;;;45.93;18.52
6196;BME280;3131;42.630;23.382;2022-08-19T11:58:41;94154.95;;;47.78;17.84
6196;BME280;3131;42.630;23.382;2022-08-19T12:01:12;94153.64;;;47.28;17.48
6196;BME280;3131;42.630;23.382;2022-08-19T12:03:44;94149.38;;;46.77;17.89
6196;BME280;3131;42.630;23.382;2022-08-19T12:06:16;94150.22;;;46.47;18.23
6196;BME280;3131;42.630;23.382;2022-08-19T12:08:45;94141.86;;;46.67;18.23
6196;BME280;3131;42.630;23.382;2022-08-19T12:11:15;94138.58;;;46.86;18.05
6196;BME280;3131;42.630;23.382;2022-08-19T12:13:44;94137.86;;;46.54;18.33
6196;BME280;3131;42.630;23.382;2022-08-19T12:16:17;94133.70;;;47.92;17.57
6196;BME280;3131;42.630;23.382;2022-08-19T12:18:47;94140.68;;;48.38;16.70
6196;BME280;3131;42.630;23.382;2022-08-19T12:21:19;94125.58;;;46.38;18.28
6196;BME280;3131;42.630;23.382;2022-08-19T12:23:50;94122.47;;;47.54;17.79
6196;BME280;3131;42.630;23.382;2022-08-19T12:26:20;94121.41;;;47.65;17.28
6196;BME280;3131;42.630;23.382;2022-08-19T12:28:49;94122.64;;;48.25;17.06
6196;BME280;3131;42.630;23.382;2022-08-19T12:31:18;94123.09;;;48.91;16.38
6196;BME280;3131;42.630;23.382;2022-08-19T12:33:48;94118.78;;;48.32;16.58
6196;BME280;3131;42.630;23.382;2022-08-19T12:36:18;94122.30;;;48.91;16.25
6196;BME280;3131;42.630;23.382;2022-08-19T12:38:49;94110.60;;;48.70;16.59
6196;BME280;3131;42.630;23.382;2022-08-19T12:41:19;94109.19;;;47.04;17.33
6196;BME280;3131;42.630;23.382;2022-08-19T12:43:50;94111.52;;;46.93;17.62
6196;BME280;3131;42.630;23.382;2022-08-19T12:46:20;94103.13;;;46.39;17.88
6196;BME280;3131;42.630;23.382;2022-08-19T12:48:49;94099.36;;;46.27;18.09
6196;BME280;3131;42.630;23.382;2022-08-19T12:51:20;94101.67;;;46.47;17.91
6196;BME280;3131;42.630;23.382;2022-08-19T12:53:49;94100.77;;;46.43;18.08
6196;BME280;3131;42.630;23.382;2022-08-19T12:56:18;94102.59;;;46.80;17.86
6196;BME280;3131;42.630;23.382;2022-08-19T12:58:47;94103.04;;;47.26;17.57
6196;BME280;3131;42.630;23.382;2022-08-19T13:01:17;94100.08;;;46.65;18.02
6196;BME280;3131;42.630;23.382;2022-08-19T13:03:47;94100.30;;;46.60;18.08
6196;BME280;3131;42.630;23.382;2022-08-19T13:06:17;94097.92;;;46.05;18.39
6196;BME280;3131;42.630;23.382;2022-08-19T13:08:46;94091.60;;;46.97;17.83
6196;BME280;3131;42.630;23.382;2022-08-19T13:11:17;94096.01;;;46.83;17.69
6196;BME280;3131;42.630;23.382;2022-08-19T13:13:48;94104.39;;;46.75;17.84
6196;BME280;3131;42.630;23.382;2022-08-19T13:16:19;94095.30;;;46.58;18.06
6196;BME280;3131;42.630;23.382;2022-08-19T13:22:11;94091.44;;;47.34;17.34
6196;BME280;3131;42.630;23.382;2022-08-19T13:50:16;94065.95;;;46.92;18.30
6196;BME280;3131;42.630;23.382;2022-08-19T14:02:40;94056.87;;;48.69;16.63
6196;BME280;3131;42.630;23.382;2022-08-19T14:05:35;94060.08;;;47.94;17.17
6196;BME280;3131;42.630;23.382;2022-08-19T14:08:32;94057.84;;;47.96;16.98
6196;BME280;3131;42.630;23.382;2022-08-19T14:14:29;94045.89;;;48.25;17.52
6196;BME280;3131;42.630;23.382;2022-08-19T14:23:22;94048.72;;;47.18;17.46